createdAt,value
2023-05-10T00:02:28.845Z,14.90
2023-05-10T00:04:59.026Z,14.90
2023-05-10T00:07:27.829Z,15.00
2023-05-10T00:09:56.803Z,15.10
2023-05-10T00:12:25.635Z,15.10
2023-05-10T00:14:54.609Z,15.10
2023-05-10T00:17:23.691Z,15.10
2023-05-10T00:19:52.740Z,15.00
2023-05-10T00:22:23.060Z,15.00
2023-05-10T00:24:51.849Z,15.00
2023-05-10T00:27:21.944Z,15.00
2023-05-10T00:29:50.670Z,15.10
2023-05-10T00:32:19.807Z,15.20
2023-05-10T00:34:48.659Z,15.20
2023-05-10T00:37:17.510Z,15.10
2023-05-10T00:39:47.701Z,15.10
2023-05-10T00:42:16.528Z,15.10
2023-05-10T00:44:45.548Z,15.20
2023-05-10T00:47:14.712Z,15.10
2023-05-10T00:49:43.832Z,15.10
2023-05-10T00:52:13.578Z,15.00
2023-05-10T00:54:42.717Z,15.00
2023-05-10T00:57:13.195Z,15.00
2023-05-10T00:59:42.233Z,15.00
2023-05-10T01:02:11.145Z,14.90
2023-05-10T01:04:40.746Z,15.00
2023-05-10T01:07:09.994Z,14.90
2023-05-10T01:09:39.732Z,15.00
2023-05-10T01:12:09.079Z,15.00
2023-05-10T01:14:39.772Z,15.00
2023-05-10T01:17:12.005Z,15.00
2023-05-10T01:19:41.368Z,15.00
2023-05-10T01:22:28.176Z,15.10
2023-05-10T01:25:22.025Z,15.10
2023-05-10T01:28:07.783Z,15.10
2023-05-10T01:31:10.757Z,15.10
2023-05-10T01:33:46.590Z,15.00
2023-05-10T01:36:27.258Z,15.00
2023-05-10T01:39:03.375Z,15.10
2023-05-10T01:41:42.459Z,15.00
2023-05-10T01:44:20.101Z,15.00
2023-05-10T01:46:54.845Z,15.10
2023-05-10T01:49:28.378Z,15.10
2023-05-10T01:52:02.626Z,15.10
2023-05-10T01:54:32.378Z,15.00
2023-05-10T01:57:05.414Z,15.00
2023-05-10T01:59:40.285Z,15.00
2023-05-10T02:02:12.794Z,15.10
2023-05-10T02:04:44.389Z,15.00
2023-05-10T02:07:14.503Z,15.00
2023-05-10T02:09:48.524Z,15.00
2023-05-10T02:12:18.902Z,15.00
2023-05-10T02:14:49.648Z,14.90
2023-05-10T02:17:19.166Z,14.90
2023-05-10T02:19:54.926Z,14.90
2023-05-10T02:22:25.080Z,15.00
2023-05-10T02:24:57.238Z,15.00
2023-05-10T02:27:27.963Z,15.00
2023-05-10T02:29:57.327Z,14.90
2023-05-10T02:32:28.377Z,14.80
2023-05-10T02:34:59.490Z,14.90
2023-05-10T02:37:29.276Z,14.90
2023-05-10T02:39:59.274Z,14.90
2023-05-10T02:42:29.840Z,15.00
2023-05-10T02:45:04.134Z,14.90
2023-05-10T02:47:33.179Z,14.90
2023-05-10T02:50:03.466Z,14.90
2023-05-10T02:52:41.726Z,14.80
2023-05-10T02:55:13.750Z,14.90
2023-05-10T02:57:48.525Z,14.80
2023-05-10T03:00:17.838Z,14.80
2023-05-10T03:02:47.225Z,14.80
2023-05-10T03:05:18.069Z,14.80
2023-05-10T03:07:47.484Z,14.80
2023-05-10T03:10:16.792Z,14.80
2023-05-10T03:13:13.194Z,14.70
2023-05-10T03:15:52.987Z,14.70
2023-05-10T03:18:25.785Z,14.70
2023-05-10T03:21:04.100Z,14.70
2023-05-10T03:23:39.590Z,14.70
2023-05-10T03:26:09.536Z,14.60
2023-05-10T03:28:39.674Z,14.60
2023-05-10T03:31:09.598Z,14.60
2023-05-10T03:33:48.845Z,14.40
2023-05-10T03:36:21.780Z,14.30
2023-05-10T03:38:51.051Z,14.20
2023-05-10T03:41:21.584Z,14.10
2023-05-10T03:43:50.645Z,14.20
2023-05-10T03:46:19.819Z,14.20
2023-05-10T03:48:48.832Z,14.30
2023-05-10T03:51:17.731Z,14.30
2023-05-10T03:53:48.176Z,14.30
2023-05-10T03:56:16.820Z,14.30
2023-05-10T03:58:45.886Z,14.30
2023-05-10T04:01:14.812Z,14.30
2023-05-10T04:03:43.813Z,14.30
2023-05-10T04:06:14.610Z,14.10
2023-05-10T04:08:45.484Z,14.10
2023-05-10T04:11:15.605Z,14.20
2023-05-10T04:13:44.819Z,14.20
2023-05-10T04:16:13.751Z,14.20
2023-05-10T04:18:42.505Z,14.20
2023-05-10T04:21:14.563Z,14.20
2023-05-10T04:23:43.292Z,14.20
2023-05-10T04:26:12.360Z,14.20
2023-05-10T04:28:42.555Z,14.20
2023-05-10T04:31:12.470Z,14.20
2023-05-10T04:33:41.409Z,14.30
2023-05-10T04:36:10.818Z,14.20
2023-05-10T04:38:39.792Z,14.20
2023-05-10T04:41:09.625Z,14.00
2023-05-10T04:43:39.493Z,14.10
2023-05-10T04:46:09.748Z,14.10
2023-05-10T04:48:38.650Z,14.20
2023-05-10T04:51:07.621Z,14.10
2023-05-10T04:53:36.867Z,14.00
2023-05-10T04:56:06.202Z,14.20
2023-05-10T04:58:35.565Z,14.20
2023-05-10T05:01:11.559Z,14.20
2023-05-10T05:03:40.523Z,14.30
2023-05-10T05:06:09.742Z,14.20
2023-05-10T05:08:38.554Z,14.20
2023-05-10T05:11:07.594Z,14.10
2023-05-10T05:13:36.340Z,14.00
2023-05-10T05:16:05.815Z,14.10
2023-05-10T05:18:36.070Z,14.10
2023-05-10T05:21:05.101Z,14.20
2023-05-10T05:23:33.982Z,14.30
2023-05-10T05:26:02.791Z,14.50
2023-05-10T05:28:33.988Z,14.50
2023-05-10T05:31:02.908Z,14.50
2023-05-10T05:33:31.711Z,14.50
2023-05-10T05:36:03.142Z,14.40
2023-05-10T05:38:32.104Z,14.50
2023-05-10T05:41:00.881Z,14.60
2023-05-10T05:43:29.830Z,14.60
2023-05-10T05:45:59.177Z,14.70
2023-05-10T05:48:28.261Z,14.70
2023-05-10T05:50:58.183Z,14.80
2023-05-10T05:53:28.361Z,14.90
2023-05-10T05:55:58.956Z,15.10
2023-05-10T05:58:29.132Z,15.10
2023-05-10T06:00:58.406Z,15.10
2023-05-10T06:03:27.440Z,15.00
2023-05-10T06:05:56.475Z,15.00
2023-05-10T06:08:25.328Z,15.10
2023-05-10T06:10:55.533Z,14.90
2023-05-10T06:13:24.267Z,14.90
2023-05-10T06:15:53.424Z,14.80
2023-05-10T06:18:22.440Z,14.90
2023-05-10T06:20:52.791Z,14.90
2023-05-10T06:23:22.088Z,14.70
2023-05-10T06:25:50.952Z,14.50
2023-05-10T06:28:21.288Z,14.50
2023-05-10T06:30:50.151Z,14.50
2023-05-10T06:33:19.067Z,14.70
2023-05-10T06:35:48.113Z,14.70
2023-05-10T06:38:17.139Z,14.60
2023-05-10T06:40:46.472Z,14.70
2023-05-10T06:43:15.310Z,14.60
2023-05-10T06:45:45.755Z,14.50
2023-05-10T06:48:14.736Z,14.50
2023-05-10T06:50:43.886Z,14.50
2023-05-10T06:53:12.912Z,14.60
2023-05-10T06:55:42.120Z,14.70
2023-05-10T06:58:10.929Z,14.80
2023-05-10T07:00:41.522Z,14.80
2023-05-10T07:03:12.171Z,14.80
2023-05-10T07:05:41.252Z,14.90
2023-05-10T07:08:10.319Z,14.90
2023-05-10T07:10:39.245Z,14.90
2023-05-10T07:13:08.139Z,14.80
2023-05-10T07:15:37.356Z,14.80
2023-05-10T07:18:07.545Z,14.70
2023-05-10T07:20:38.143Z,14.80
2023-05-10T07:23:07.209Z,14.70
2023-05-10T07:25:36.074Z,14.70
2023-05-10T07:28:05.330Z,14.70
2023-05-10T07:30:34.225Z,14.70
2023-05-10T07:33:03.192Z,14.60
2023-05-10T07:35:32.209Z,14.60
2023-05-10T07:38:02.842Z,14.60
2023-05-10T07:40:32.269Z,14.80
2023-05-10T07:43:02.833Z,14.70
2023-05-10T07:45:32.036Z,14.70
2023-05-10T07:48:01.314Z,14.60
2023-05-10T07:50:30.672Z,14.60
2023-05-10T07:53:01.452Z,14.60
2023-05-10T07:55:30.644Z,14.60
2023-05-10T07:58:02.004Z,14.60
2023-05-10T08:00:30.814Z,14.60
2023-05-10T08:03:00.006Z,14.60
2023-05-10T08:05:29.037Z,14.60
2023-05-10T08:07:58.289Z,14.50
2023-05-10T08:10:28.678Z,14.50
2023-05-10T08:12:59.421Z,14.70
2023-05-10T08:15:28.502Z,14.80
2023-05-10T08:17:57.578Z,14.80
2023-05-10T08:20:26.705Z,14.90
2023-05-10T08:22:56.311Z,15.00
2023-05-10T08:25:25.216Z,15.10
2023-05-10T08:27:55.456Z,15.00
2023-05-10T08:30:24.636Z,15.00
2023-05-10T08:32:53.647Z,15.00
2023-05-10T08:35:22.699Z,15.20
2023-05-10T08:37:51.588Z,15.10
2023-05-10T08:40:22.364Z,15.30
2023-05-10T08:42:57.650Z,15.40
2023-05-10T08:45:29.491Z,15.40
2023-05-10T08:47:58.610Z,15.40
2023-05-10T08:50:28.117Z,15.60
2023-05-10T08:52:59.851Z,15.60
2023-05-10T08:55:29.106Z,15.70
2023-05-10T08:57:59.398Z,15.70
2023-05-10T09:00:28.462Z,15.60
2023-05-10T09:02:58.184Z,15.70
2023-05-10T09:05:27.486Z,15.90
2023-05-10T09:07:56.537Z,15.90
2023-05-10T09:10:28.387Z,15.90
2023-05-10T09:12:59.744Z,16.00
2023-05-10T09:15:28.591Z,16.00
2023-05-10T09:17:59.178Z,16.10
2023-05-10T09:20:28.428Z,16.00
2023-05-10T09:22:57.200Z,15.90
2023-05-10T09:25:26.040Z,15.80
2023-05-10T09:27:55.227Z,15.60
2023-05-10T09:30:30.158Z,15.40
2023-05-10T09:33:00.523Z,15.30
2023-05-10T09:35:31.883Z,15.20
2023-05-10T09:38:07.706Z,15.30
2023-05-10T09:40:36.578Z,15.30
2023-05-10T09:43:08.166Z,15.40
2023-05-10T09:45:39.281Z,15.40
2023-05-10T09:48:08.900Z,15.50
2023-05-10T09:50:37.877Z,15.40
2023-05-10T09:53:06.795Z,15.40
2023-05-10T09:55:45.291Z,15.30
2023-05-10T09:58:15.153Z,15.30
2023-05-10T10:00:48.924Z,15.40
2023-05-10T10:03:18.988Z,15.30
2023-05-10T10:05:49.255Z,15.30
2023-05-10T10:08:18.755Z,15.20
2023-05-10T10:10:48.681Z,15.20
2023-05-10T10:13:18.241Z,15.30
2023-05-10T10:15:52.061Z,15.30
2023-05-10T10:18:24.950Z,15.30
2023-05-10T10:20:54.902Z,15.30
2023-05-10T10:23:24.512Z,15.30
2023-05-10T10:25:55.248Z,15.40
2023-05-10T10:28:29.962Z,15.40
2023-05-10T10:31:14.757Z,15.60
2023-05-10T10:33:58.856Z,15.60
2023-05-10T10:36:29.169Z,15.70
2023-05-10T10:39:01.642Z,15.80
2023-05-10T10:41:31.357Z,16.00
2023-05-10T10:44:25.820Z,16.10
2023-05-10T10:47:09.591Z,16.00
2023-05-10T10:49:50.433Z,16.00
2023-05-10T10:52:27.957Z,16.00
2023-05-10T10:55:02.249Z,16.00
2023-05-10T10:57:34.646Z,16.10
2023-05-10T11:00:22.800Z,16.20
2023-05-10T11:02:54.317Z,16.20
2023-05-10T11:05:28.345Z,16.20
2023-05-10T11:07:58.574Z,16.30
2023-05-10T11:10:29.796Z,16.40
2023-05-10T11:13:03.085Z,16.50
2023-05-10T11:15:32.706Z,16.60
2023-05-10T11:18:19.270Z,16.90
2023-05-10T11:20:52.892Z,17.10
2023-05-10T11:23:22.366Z,17.20
2023-05-10T11:25:52.034Z,17.10
2023-05-10T11:28:21.408Z,17.20
2023-05-10T11:30:50.474Z,17.30
2023-05-10T11:33:22.105Z,17.40
2023-05-10T11:35:51.000Z,17.50
2023-05-10T11:38:20.184Z,17.50
2023-05-10T11:40:49.181Z,17.40
2023-05-10T11:43:18.312Z,17.50
2023-05-10T11:45:47.880Z,17.70
2023-05-10T11:48:17.965Z,17.80
2023-05-10T11:50:48.898Z,18.00
2023-05-10T11:53:17.816Z,18.20
2023-05-10T11:55:46.738Z,18.50
2023-05-10T11:58:15.776Z,18.40
2023-05-10T12:00:44.832Z,18.60
2023-05-10T12:03:13.993Z,18.60
2023-05-10T12:05:43.400Z,18.50
2023-05-10T12:08:18.409Z,18.70
2023-05-10T12:10:47.335Z,18.60
2023-05-10T12:13:16.952Z,18.60
2023-05-10T12:15:46.422Z,18.70
2023-05-10T12:18:16.353Z,18.80
2023-05-10T12:20:45.150Z,18.60
2023-05-10T12:23:15.111Z,18.60
2023-05-10T12:25:46.038Z,18.70
2023-05-10T12:28:15.006Z,18.80
2023-05-10T12:30:43.849Z,18.80
2023-05-10T12:33:16.096Z,19.00
2023-05-10T12:35:48.543Z,19.10
2023-05-10T12:38:31.887Z,19.40
2023-05-10T12:41:03.461Z,19.40
2023-05-10T12:43:32.728Z,19.50
2023-05-10T12:46:07.546Z,19.50
2023-05-10T12:48:37.265Z,19.60
2023-05-10T12:51:10.254Z,19.70
2023-05-10T12:53:42.769Z,19.70
2023-05-10T12:56:14.802Z,19.80
2023-05-10T12:58:49.176Z,19.80
2023-05-10T13:01:18.643Z,19.80
2023-05-10T13:03:48.166Z,19.80
2023-05-10T13:06:17.047Z,19.90
2023-05-10T13:08:46.020Z,19.90
2023-05-10T13:11:18.066Z,19.80
2023-05-10T13:13:47.166Z,19.70
2023-05-10T13:16:16.164Z,19.50
2023-05-10T13:18:45.256Z,19.20
2023-05-10T13:21:14.253Z,19.40
2023-05-10T13:23:43.286Z,19.60
2023-05-10T13:26:12.325Z,19.80
2023-05-10T13:28:42.648Z,20.00
2023-05-10T13:31:11.750Z,19.90
2023-05-10T13:33:40.769Z,20.10
2023-05-10T13:36:10.008Z,20.20
2023-05-10T13:38:38.975Z,20.20
2023-05-10T13:41:07.966Z,19.90
2023-05-10T13:43:37.198Z,19.60
2023-05-10T13:46:07.698Z,19.50
2023-05-10T13:48:39.122Z,19.40
2023-05-10T13:51:08.590Z,19.30
2023-05-10T13:53:37.491Z,19.20
2023-05-10T13:56:06.738Z,19.30
2023-05-10T13:58:36.835Z,19.40
2023-05-10T14:01:07.828Z,19.50
2023-05-10T14:03:37.051Z,19.40
2023-05-10T14:06:08.404Z,19.20
2023-05-10T14:08:38.022Z,19.20
2023-05-10T14:11:07.611Z,19.20
2023-05-10T14:13:36.902Z,19.30
2023-05-10T14:16:07.777Z,19.20
2023-05-10T14:18:36.711Z,19.20
2023-05-10T14:21:06.616Z,19.30
2023-05-10T14:23:35.749Z,19.20
2023-05-10T14:26:05.059Z,19.10
2023-05-10T14:28:33.911Z,19.20
2023-05-10T14:31:03.448Z,19.00
2023-05-10T14:33:33.661Z,19.00
2023-05-10T14:36:04.356Z,18.90
2023-05-10T14:38:33.099Z,19.00
2023-05-10T14:41:02.330Z,19.10
2023-05-10T14:43:31.522Z,19.20
2023-05-10T14:46:00.622Z,19.30
2023-05-10T14:48:29.631Z,19.30
2023-05-10T14:50:59.876Z,19.20
2023-05-10T14:53:28.733Z,18.90
2023-05-10T14:55:57.512Z,18.70
2023-05-10T14:58:26.441Z,18.50
2023-05-10T15:00:55.459Z,18.20
2023-05-10T15:03:24.580Z,18.10
2023-05-10T15:05:54.184Z,18.00
2023-05-10T15:08:24.731Z,18.00
2023-05-10T15:10:56.507Z,18.10
2023-05-10T15:13:25.415Z,17.90
2023-05-10T15:15:55.190Z,17.60
2023-05-10T15:18:26.976Z,17.30
2023-05-10T15:20:56.374Z,17.30
2023-05-10T15:23:26.947Z,17.30
2023-05-10T15:25:56.881Z,17.30
2023-05-10T15:28:25.953Z,17.40
2023-05-10T15:30:55.103Z,17.40
2023-05-10T15:33:24.302Z,17.60
2023-05-10T15:35:54.664Z,17.60
2023-05-10T15:38:23.612Z,17.50
2023-05-10T15:40:57.280Z,17.50
2023-05-10T15:43:26.329Z,17.70
2023-05-10T15:45:55.211Z,17.90
2023-05-10T15:48:24.266Z,18.20
2023-05-10T15:50:53.739Z,18.30
2023-05-10T15:53:22.765Z,18.50
2023-05-10T15:55:53.047Z,18.50
2023-05-10T15:58:21.998Z,18.30
2023-05-10T16:00:50.752Z,18.20
2023-05-10T16:03:19.691Z,18.20
2023-05-10T16:05:48.619Z,18.40
2023-05-10T16:08:17.414Z,18.50
2023-05-10T16:10:46.338Z,18.70
2023-05-10T16:13:16.960Z,18.70
2023-05-10T16:15:45.971Z,18.50
2023-05-10T16:18:14.819Z,18.80
2023-05-10T16:20:43.706Z,19.20
2023-05-10T16:23:12.945Z,19.50
2023-05-10T16:25:42.289Z,19.70
2023-05-10T16:28:11.220Z,20.50
2023-05-10T16:30:41.836Z,20.70
2023-05-10T16:33:10.857Z,20.30
2023-05-10T16:35:39.915Z,19.70
2023-05-10T16:38:08.986Z,19.50
2023-05-10T16:40:37.818Z,19.90
2023-05-10T16:43:06.709Z,19.90
2023-05-10T16:45:35.983Z,20.20
2023-05-10T16:48:07.117Z,20.00
2023-05-10T16:50:36.059Z,19.90
2023-05-10T16:53:04.947Z,19.80
2023-05-10T16:55:33.665Z,19.40
2023-05-10T16:58:03.246Z,18.70
2023-05-10T17:00:32.207Z,18.50
2023-05-10T17:03:01.341Z,18.20
2023-05-10T17:05:31.792Z,18.10
2023-05-10T17:08:01.016Z,18.30
2023-05-10T17:10:30.016Z,18.40
2023-05-10T17:12:59.010Z,18.40
2023-05-10T17:15:28.057Z,18.40
2023-05-10T17:17:57.747Z,18.50
2023-05-10T17:20:26.621Z,18.20
2023-05-10T17:22:56.925Z,18.30
2023-05-10T17:25:25.988Z,18.40
2023-05-10T17:27:54.899Z,18.50
2023-05-10T17:30:26.449Z,18.40
2023-05-10T17:32:55.558Z,18.50
2023-05-10T17:35:24.477Z,18.50
2023-05-10T17:37:53.236Z,18.50
2023-05-10T17:40:23.523Z,18.10
2023-05-10T17:42:52.845Z,18.10
2023-05-10T17:45:21.953Z,17.70
2023-05-10T17:47:52.198Z,17.70
2023-05-10T17:50:21.298Z,17.60
2023-05-10T17:52:51.466Z,17.70
2023-05-10T17:55:20.640Z,17.70
2023-05-10T17:57:52.254Z,17.70
2023-05-10T18:00:21.479Z,17.60
2023-05-10T18:02:50.859Z,17.80
2023-05-10T18:05:20.390Z,17.90
2023-05-10T18:07:51.409Z,17.80
2023-05-10T18:10:20.437Z,17.70
2023-05-10T18:12:52.420Z,17.50
2023-05-10T18:15:21.449Z,17.50
2023-05-10T18:17:51.152Z,17.50
2023-05-10T18:20:20.300Z,17.40
2023-05-10T18:22:49.270Z,17.30
2023-05-10T18:25:18.410Z,17.10
2023-05-10T18:27:48.341Z,16.80
2023-05-10T18:30:19.071Z,16.80
2023-05-10T18:32:48.156Z,16.70
2023-05-10T18:35:17.215Z,16.80
2023-05-10T18:37:46.224Z,16.80
2023-05-10T18:40:15.146Z,16.80
2023-05-10T18:42:46.679Z,16.70
2023-05-10T18:45:16.204Z,16.50
2023-05-10T18:47:46.888Z,16.40
2023-05-10T18:50:17.170Z,16.50
2023-05-10T18:52:46.521Z,16.50
2023-05-10T18:55:15.992Z,16.50
2023-05-10T18:57:45.438Z,16.60
2023-05-10T19:00:15.143Z,16.40
2023-05-10T19:02:44.175Z,16.40
2023-05-10T19:05:15.980Z,16.50
2023-05-10T19:07:45.487Z,16.20
2023-05-10T19:10:14.848Z,16.20
2023-05-10T19:12:43.751Z,16.10
2023-05-10T19:15:13.053Z,16.10
2023-05-10T19:17:42.191Z,16.10
2023-05-10T19:20:12.195Z,16.40
2023-05-10T19:22:54.848Z,16.50
2023-05-10T19:25:29.662Z,16.60
2023-05-10T19:27:59.117Z,16.50
2023-05-10T19:30:28.867Z,16.50
2023-05-10T19:32:58.061Z,16.30
2023-05-10T19:35:27.100Z,16.40
2023-05-10T19:37:57.560Z,16.40
2023-05-10T19:40:26.652Z,16.40
2023-05-10T19:42:57.208Z,16.30
2023-05-10T19:45:27.037Z,16.40
2023-05-10T19:47:56.918Z,16.40
2023-05-10T19:50:26.173Z,16.40
2023-05-10T19:52:58.557Z,16.40
2023-05-10T19:55:29.181Z,16.30
2023-05-10T19:58:00.511Z,16.20
2023-05-10T20:00:29.955Z,16.30
2023-05-10T20:02:59.959Z,16.30
2023-05-10T20:05:29.009Z,16.40
2023-05-10T20:08:00.133Z,16.30
2023-05-10T20:10:29.054Z,16.30
2023-05-10T20:12:59.121Z,16.20
2023-05-10T20:15:30.126Z,16.20
2023-05-10T20:17:59.192Z,16.10
2023-05-10T20:20:28.272Z,16.10
2023-05-10T20:22:57.182Z,16.20
2023-05-10T20:25:27.725Z,16.20
2023-05-10T20:27:56.643Z,16.20
2023-05-10T20:30:25.705Z,16.10
2023-05-10T20:32:55.344Z,16.20
2023-05-10T20:35:24.250Z,16.20
2023-05-10T20:37:53.133Z,16.30
2023-05-10T20:40:22.283Z,16.30
2023-05-10T20:42:54.179Z,16.20
2023-05-10T20:45:23.074Z,16.00
2023-05-10T20:47:52.448Z,15.90
2023-05-10T20:50:21.344Z,16.10
2023-05-10T20:52:52.301Z,16.10
2023-05-10T20:55:24.686Z,16.00
2023-05-10T20:57:55.756Z,15.90
2023-05-10T21:00:24.730Z,15.80
2023-05-10T21:02:54.590Z,15.70
2023-05-10T21:05:23.936Z,15.80
2023-05-10T21:07:54.237Z,15.80
2023-05-10T21:10:23.336Z,15.80
2023-05-10T21:12:52.150Z,15.60
2023-05-10T21:15:24.529Z,15.60
2023-05-10T21:17:54.045Z,15.70
2023-05-10T21:20:23.553Z,15.60
2023-05-10T21:22:54.049Z,15.60
2023-05-10T21:25:23.803Z,15.50
2023-05-10T21:27:52.951Z,15.70
2023-05-10T21:30:23.492Z,15.60
2023-05-10T21:32:59.704Z,15.70
2023-05-10T21:35:28.929Z,15.70
2023-05-10T21:37:57.879Z,15.80
2023-05-10T21:40:26.737Z,15.80
2023-05-10T21:42:55.665Z,15.80
2023-05-10T21:45:26.226Z,15.80
2023-05-10T21:47:55.326Z,15.80
2023-05-10T21:50:24.130Z,15.70
2023-05-10T21:52:53.056Z,15.70
2023-05-10T21:55:24.380Z,15.60
2023-05-10T21:57:53.225Z,15.50
2023-05-10T22:00:22.219Z,15.60
2023-05-10T22:02:54.007Z,15.60
2023-05-10T22:05:23.026Z,15.50
2023-05-10T22:07:51.933Z,15.50
2023-05-10T22:10:20.960Z,15.50
2023-05-10T22:12:51.804Z,15.40
2023-05-10T22:15:20.760Z,15.40
2023-05-10T22:17:49.889Z,15.40
2023-05-10T22:20:21.078Z,15.40
2023-05-10T22:22:50.333Z,15.50
2023-05-10T22:25:19.396Z,15.40
2023-05-10T22:27:48.478Z,15.40
2023-05-10T22:30:17.643Z,15.50
2023-05-10T22:32:47.310Z,15.40
2023-05-10T22:35:16.297Z,15.40
2023-05-10T22:37:46.557Z,15.50
2023-05-10T22:40:15.386Z,15.50
2023-05-10T22:42:44.639Z,15.50
2023-05-10T22:45:13.675Z,15.60
2023-05-10T22:47:42.876Z,15.60
2023-05-10T22:50:12.960Z,15.50
2023-05-10T22:52:41.721Z,15.60
2023-05-10T22:55:12.350Z,15.70
2023-05-10T22:57:41.358Z,15.60
2023-05-10T23:00:11.271Z,15.60
2023-05-10T23:02:40.515Z,15.50
2023-05-10T23:05:10.619Z,15.60
2023-05-10T23:07:39.472Z,15.60
2023-05-10T23:10:08.803Z,15.50
2023-05-10T23:12:38.849Z,15.50
2023-05-10T23:15:08.589Z,15.50
2023-05-10T23:17:37.234Z,15.50
2023-05-10T23:20:07.254Z,15.60
2023-05-10T23:22:36.154Z,15.60
2023-05-10T23:25:05.371Z,15.60
2023-05-10T23:27:34.379Z,15.50
2023-05-10T23:30:05.023Z,15.50
2023-05-10T23:32:33.966Z,15.50
2023-05-10T23:35:02.713Z,15.40
2023-05-10T23:37:31.687Z,15.30
2023-05-10T23:40:00.725Z,15.30
2023-05-10T23:42:33.819Z,15.40
2023-05-10T23:45:04.674Z,15.50
2023-05-10T23:47:33.572Z,15.50
2023-05-10T23:50:02.807Z,15.50
2023-05-10T23:52:31.671Z,15.30
2023-05-10T23:55:00.640Z,15.30
2023-05-10T23:57:29.510Z,15.30
2023-05-10T23:59:58.397Z,15.40
